createdAt,value
2018-11-28T00:00:02.311Z,0.00
2018-11-28T00:01:02.307Z,0.00
2018-11-28T00:02:02.294Z,0.00
2018-11-28T00:03:02.285Z,0.00
2018-11-28T00:04:02.268Z,0.00
2018-11-28T00:05:02.258Z,0.00
2018-11-28T00:06:02.255Z,0.00
2018-11-28T00:07:02.242Z,0.00
2018-11-28T00:08:02.237Z,0.00
2018-11-28T00:09:02.231Z,0.00
2018-11-28T00:10:02.217Z,0.00
2018-11-28T00:11:02.211Z,0.00
2018-11-28T00:12:02.197Z,0.00
2018-11-28T00:13:02.190Z,0.00
2018-11-28T00:14:02.182Z,0.00
2018-11-28T00:15:02.171Z,0.00
2018-11-28T00:16:02.180Z,0.00
2018-11-28T00:17:02.154Z,0.00
2018-11-28T00:18:02.148Z,0.00
2018-11-28T00:19:02.145Z,0.00
2018-11-28T00:20:02.123Z,0.00
2018-11-28T00:21:02.117Z,0.00
2018-11-28T00:22:02.109Z,0.00
2018-11-28T00:23:02.096Z,0.00
2018-11-28T00:24:02.087Z,0.00
2018-11-28T00:25:02.092Z,0.00
2018-11-28T00:26:02.072Z,0.00
2018-11-28T00:27:02.059Z,0.00
2018-11-28T00:28:02.050Z,0.00
2018-11-28T00:29:02.039Z,0.00
2018-11-28T00:30:02.034Z,0.00
2018-11-28T00:31:02.027Z,0.00
2018-11-28T00:32:02.018Z,0.00
2018-11-28T00:33:02.014Z,0.00
2018-11-28T00:34:01.995Z,0.00
2018-11-28T00:35:01.986Z,0.00
2018-11-28T00:36:01.977Z,0.00
2018-11-28T00:37:01.968Z,0.00
2018-11-28T00:38:01.956Z,0.00
2018-11-28T00:39:01.946Z,0.00
2018-11-28T00:40:01.943Z,0.00
2018-11-28T00:41:01.926Z,0.00
2018-11-28T00:42:01.921Z,0.00
2018-11-28T00:43:01.922Z,0.00
2018-11-28T00:44:01.935Z,0.00
2018-11-28T00:45:01.883Z,0.00
2018-11-28T00:46:01.891Z,0.00
2018-11-28T00:47:01.871Z,0.00
2018-11-28T00:48:01.862Z,0.00
2018-11-28T00:49:01.853Z,0.00
2018-11-28T00:50:01.843Z,0.00
2018-11-28T00:51:01.843Z,0.00
2018-11-28T00:52:01.868Z,0.00
2018-11-28T00:53:01.819Z,0.00
2018-11-28T00:54:01.839Z,0.00
2018-11-28T00:55:01.817Z,0.00
2018-11-28T00:56:01.792Z,0.00
2018-11-28T00:57:01.779Z,0.00
2018-11-28T00:58:01.771Z,0.00
2018-11-28T00:59:01.765Z,0.00
2018-11-28T01:00:01.750Z,0.00
2018-11-28T01:01:01.730Z,0.00
2018-11-28T01:02:01.738Z,0.00
2018-11-28T01:03:01.729Z,0.00
2018-11-28T01:04:01.711Z,0.00
2018-11-28T01:05:01.710Z,0.00
2018-11-28T01:06:01.709Z,0.00
2018-11-28T01:07:01.684Z,0.00
2018-11-28T01:08:01.673Z,0.00
2018-11-28T01:09:01.665Z,0.00
2018-11-28T01:10:01.654Z,0.00
2018-11-28T01:11:01.651Z,0.00
2018-11-28T01:12:01.639Z,0.00
2018-11-28T01:13:01.623Z,0.00
2018-11-28T01:14:01.616Z,0.00
2018-11-28T01:15:01.609Z,0.00
2018-11-28T01:16:01.600Z,0.00
2018-11-28T01:17:01.587Z,0.00
2018-11-28T01:18:01.580Z,0.00
2018-11-28T01:19:01.571Z,0.00
2018-11-28T01:20:01.584Z,0.00
2018-11-28T01:21:01.550Z,0.00
2018-11-28T01:22:01.541Z,0.00
2018-11-28T01:23:01.530Z,0.00
2018-11-28T01:24:01.525Z,0.00
2018-11-28T01:25:01.522Z,0.00
2018-11-28T01:26:01.501Z,0.00
2018-11-28T01:27:01.494Z,0.00
2018-11-28T01:28:01.483Z,0.00
2018-11-28T01:29:01.481Z,0.00
2018-11-28T01:30:01.465Z,0.00
2018-11-28T01:31:01.454Z,0.00
2018-11-28T01:32:01.445Z,0.00
2018-11-28T01:33:01.462Z,0.00
2018-11-28T01:34:01.428Z,0.00
2018-11-28T01:35:01.431Z,0.00
2018-11-28T01:36:01.406Z,0.00
2018-11-28T01:37:01.398Z,0.00
2018-11-28T01:38:01.408Z,0.00
2018-11-28T01:39:01.368Z,0.00
2018-11-28T01:40:01.373Z,0.00
2018-11-28T01:41:01.360Z,0.00
2018-11-28T01:42:01.351Z,0.00
2018-11-28T01:43:01.341Z,0.00
2018-11-28T01:44:01.333Z,0.00
2018-11-28T01:45:01.324Z,0.00
2018-11-28T01:46:01.314Z,0.00
2018-11-28T01:47:01.302Z,0.00
2018-11-28T01:48:01.297Z,0.00
2018-11-28T01:49:01.284Z,0.00
2018-11-28T01:50:01.698Z,0.00
2018-11-28T01:51:01.264Z,0.00
2018-11-28T01:52:01.257Z,0.00
2018-11-28T01:53:01.244Z,0.00
2018-11-28T01:54:01.239Z,0.00
2018-11-28T01:55:01.229Z,0.00
2018-11-28T01:56:01.220Z,0.00
2018-11-28T01:57:01.209Z,0.00
2018-11-28T01:58:01.200Z,0.00
2018-11-28T01:59:01.197Z,0.00
2018-11-28T02:00:01.185Z,0.00
2018-11-28T02:01:01.168Z,0.00
2018-11-28T02:02:01.163Z,0.00
2018-11-28T02:03:01.162Z,0.00
2018-11-28T02:04:01.137Z,0.00
2018-11-28T02:05:01.135Z,0.00
2018-11-28T02:06:01.118Z,0.00
2018-11-28T02:07:01.111Z,0.00
2018-11-28T02:08:01.101Z,0.00
2018-11-28T02:09:01.094Z,0.00
2018-11-28T02:10:01.085Z,0.00
2018-11-28T02:11:01.076Z,0.00
2018-11-28T02:12:01.068Z,0.00
2018-11-28T02:13:01.052Z,0.00
2018-11-28T02:14:01.049Z,0.00
2018-11-28T02:15:01.035Z,0.00
2018-11-28T02:16:01.024Z,0.00
2018-11-28T02:17:01.015Z,0.00
2018-11-28T02:18:01.001Z,0.00
2018-11-28T02:19:00.996Z,0.00
2018-11-28T02:20:00.986Z,0.00
2018-11-28T02:21:00.979Z,0.00
2018-11-28T02:22:00.967Z,0.00
2018-11-28T02:23:00.961Z,0.00
2018-11-28T02:24:00.937Z,0.00
2018-11-28T02:25:00.939Z,0.00
2018-11-28T02:26:00.930Z,0.00
2018-11-28T02:27:00.921Z,0.00
2018-11-28T02:28:00.920Z,0.00
2018-11-28T02:29:00.903Z,0.00
2018-11-28T02:30:00.901Z,0.00
2018-11-28T02:31:00.879Z,0.00
2018-11-28T02:32:00.873Z,0.00
2018-11-28T02:33:00.863Z,0.00
2018-11-28T02:34:00.844Z,0.00
2018-11-28T02:35:00.840Z,0.00
2018-11-28T02:36:00.824Z,0.00
2018-11-28T02:37:00.821Z,0.00
2018-11-28T02:38:00.811Z,0.00
2018-11-28T02:39:00.814Z,0.00
2018-11-28T02:40:00.789Z,0.00
2018-11-28T02:41:00.781Z,0.00
2018-11-28T02:42:00.772Z,0.00
2018-11-28T02:43:00.762Z,0.00
2018-11-28T02:44:00.752Z,0.00
2018-11-28T02:45:00.741Z,0.00
2018-11-28T02:46:00.734Z,0.00
2018-11-28T02:47:00.718Z,0.00
2018-11-28T02:48:00.723Z,0.00
2018-11-28T02:49:00.772Z,0.00
2018-11-28T02:50:00.698Z,0.00
2018-11-28T02:51:00.682Z,0.00
2018-11-28T02:52:00.676Z,0.00
2018-11-28T02:53:00.667Z,0.00
2018-11-28T02:54:00.660Z,0.00
2018-11-28T02:55:00.648Z,0.00
2018-11-28T02:56:00.631Z,0.00
2018-11-28T02:57:00.623Z,0.00
2018-11-28T02:58:00.635Z,0.00
2018-11-28T02:59:00.591Z,0.00
2018-11-28T03:00:00.593Z,0.00
2018-11-28T03:01:00.598Z,0.00
2018-11-28T03:02:00.576Z,0.00
2018-11-28T03:03:00.570Z,0.00
2018-11-28T03:04:00.552Z,0.00
2018-11-28T03:05:00.545Z,0.00
2018-11-28T03:06:00.533Z,0.00
2018-11-28T03:07:00.584Z,0.00
2018-11-28T03:08:00.511Z,0.00
2018-11-28T03:09:00.503Z,0.00
2018-11-28T03:10:00.495Z,0.00
2018-11-28T03:11:00.478Z,0.00
2018-11-28T03:12:00.473Z,0.00
2018-11-28T03:13:00.477Z,0.00
2018-11-28T03:14:00.455Z,0.00
2018-11-28T03:15:00.441Z,0.00
2018-11-28T03:16:00.437Z,0.00
2018-11-28T03:17:00.422Z,0.00
2018-11-28T03:18:00.400Z,0.00
2018-11-28T03:19:00.398Z,0.00
2018-11-28T03:20:00.409Z,0.00
2018-11-28T03:21:00.379Z,0.00
2018-11-28T03:22:00.373Z,0.00
2018-11-28T03:23:00.358Z,0.00
2018-11-28T03:24:00.354Z,0.00
2018-11-28T03:25:00.342Z,0.00
2018-11-28T03:26:00.330Z,0.00
2018-11-28T03:27:00.317Z,0.00
2018-11-28T03:28:00.306Z,0.00
2018-11-28T03:29:00.297Z,0.00
2018-11-28T03:30:00.287Z,0.00
2018-11-28T03:31:00.276Z,0.00
2018-11-28T03:32:00.274Z,0.00
2018-11-28T03:33:00.325Z,0.00
2018-11-28T03:34:00.242Z,0.00
2018-11-28T03:35:00.243Z,0.00
2018-11-28T03:36:00.237Z,0.00
2018-11-28T03:37:00.214Z,0.00
2018-11-28T03:38:00.246Z,0.00
2018-11-28T03:39:00.207Z,0.00
2018-11-28T03:40:00.181Z,0.00
2018-11-28T03:41:00.178Z,0.00
2018-11-28T03:42:00.167Z,0.00
2018-11-28T03:43:00.152Z,0.00
2018-11-28T03:44:00.150Z,0.00
2018-11-28T03:45:00.138Z,0.00
2018-11-28T03:46:00.122Z,0.00
2018-11-28T03:47:00.110Z,0.00
2018-11-28T03:48:00.102Z,0.00
2018-11-28T03:49:00.088Z,0.00
2018-11-28T03:50:00.078Z,0.00
2018-11-28T03:51:00.775Z,0.00
2018-11-28T03:52:00.056Z,0.00
2018-11-28T03:53:00.052Z,0.00
2018-11-28T03:54:00.040Z,0.00
2018-11-28T03:55:00.027Z,0.00
2018-11-28T03:56:00.021Z,0.00
2018-11-28T03:57:00.002Z,0.00
2018-11-28T03:57:59.997Z,0.00
2018-11-28T03:58:59.978Z,0.00
2018-11-28T03:59:59.975Z,0.00
2018-11-28T04:00:59.964Z,0.00
2018-11-28T04:01:59.954Z,0.00
2018-11-28T04:02:59.943Z,0.00
2018-11-28T04:03:59.931Z,0.00
2018-11-28T04:04:59.921Z,0.00
2018-11-28T04:05:59.909Z,0.00
2018-11-28T04:06:59.909Z,0.00
2018-11-28T04:07:59.887Z,0.00
2018-11-28T04:08:59.880Z,0.00
2018-11-28T04:09:59.868Z,0.00
2018-11-28T04:10:59.855Z,0.00
2018-11-28T04:11:59.845Z,0.00
2018-11-28T04:12:59.837Z,0.00
2018-11-28T04:13:59.825Z,0.00
2018-11-28T04:14:59.813Z,0.00
2018-11-28T04:15:59.818Z,0.00
2018-11-28T04:16:59.792Z,0.00
2018-11-28T04:17:59.781Z,0.00
2018-11-28T04:18:59.770Z,0.00
2018-11-28T04:19:59.755Z,0.00
2018-11-28T04:20:59.747Z,0.00
2018-11-28T04:21:59.747Z,0.00
2018-11-28T04:22:59.727Z,0.00
2018-11-28T04:23:59.717Z,0.00
2018-11-28T04:24:59.703Z,0.00
2018-11-28T04:25:59.693Z,0.00
2018-11-28T04:26:59.680Z,0.00
2018-11-28T04:27:59.670Z,0.00
2018-11-28T04:28:59.657Z,0.00
2018-11-28T04:29:59.649Z,0.00
2018-11-28T04:30:59.631Z,0.00
2018-11-28T04:31:59.630Z,0.00
2018-11-28T04:32:59.625Z,0.00
2018-11-28T04:33:59.606Z,0.00
2018-11-28T04:34:59.591Z,0.00
2018-11-28T04:35:59.583Z,0.00
2018-11-28T04:36:59.571Z,0.00
2018-11-28T04:37:59.559Z,0.00
2018-11-28T04:38:59.551Z,0.00
2018-11-28T04:39:59.536Z,0.00
2018-11-28T04:40:59.529Z,0.00
2018-11-28T04:41:59.521Z,0.00
2018-11-28T04:42:59.508Z,0.00
2018-11-28T04:43:59.492Z,0.00
2018-11-28T04:44:59.478Z,0.00
2018-11-28T04:45:59.468Z,0.00
2018-11-28T04:46:59.481Z,0.00
2018-11-28T04:47:59.447Z,0.00
2018-11-28T04:48:59.438Z,0.00
2018-11-28T04:49:59.424Z,0.00
2018-11-28T04:50:59.407Z,0.00
2018-11-28T04:51:59.404Z,0.00
2018-11-28T04:52:59.420Z,0.00
2018-11-28T04:53:59.381Z,0.00
2018-11-28T04:54:59.363Z,0.00
2018-11-28T04:55:59.356Z,0.00
2018-11-28T04:56:59.346Z,0.00
2018-11-28T04:57:59.336Z,0.00
2018-11-28T04:58:59.323Z,0.00
2018-11-28T04:59:59.311Z,0.00
2018-11-28T05:00:59.299Z,0.00
2018-11-28T05:01:59.291Z,0.00
2018-11-28T05:02:59.288Z,0.00
2018-11-28T05:03:59.268Z,0.00
2018-11-28T05:04:59.257Z,0.00
2018-11-28T05:05:59.292Z,0.00
2018-11-28T05:06:59.236Z,0.00
2018-11-28T05:07:59.219Z,0.00
2018-11-28T05:08:59.198Z,0.00
2018-11-28T05:09:59.197Z,0.00
2018-11-28T05:10:59.188Z,0.00
2018-11-28T05:11:59.174Z,0.00
2018-11-28T05:12:59.164Z,0.00
2018-11-28T05:13:59.162Z,0.00
2018-11-28T05:14:59.139Z,0.00
2018-11-28T05:15:59.129Z,0.00
2018-11-28T05:16:59.117Z,0.00
2018-11-28T05:17:59.104Z,0.00
2018-11-28T05:18:59.096Z,0.00
2018-11-28T05:19:59.091Z,0.00
2018-11-28T05:20:59.077Z,0.00
2018-11-28T05:21:59.054Z,0.00
2018-11-28T05:22:59.045Z,0.00
2018-11-28T05:23:59.037Z,0.00
2018-11-28T05:24:59.025Z,0.00
2018-11-28T05:25:59.015Z,0.00
2018-11-28T05:26:59.004Z,0.00
2018-11-28T05:27:58.989Z,0.00
2018-11-28T05:28:58.982Z,0.00
2018-11-28T05:29:58.969Z,0.00
2018-11-28T05:30:58.960Z,0.00
2018-11-28T05:31:58.948Z,0.00
2018-11-28T05:32:58.941Z,0.00
2018-11-28T05:33:58.922Z,0.00
2018-11-28T05:34:58.906Z,0.00
2018-11-28T05:35:58.898Z,0.00
2018-11-28T05:36:58.891Z,0.00
2018-11-28T05:37:58.876Z,0.00
2018-11-28T05:38:58.865Z,0.00
2018-11-28T05:39:58.857Z,0.00
2018-11-28T05:40:58.842Z,0.00
2018-11-28T05:41:58.845Z,0.00
2018-11-28T05:42:58.815Z,0.00
2018-11-28T05:43:58.810Z,0.00
2018-11-28T05:44:58.802Z,0.00
2018-11-28T05:45:58.774Z,0.00
2018-11-28T05:46:58.765Z,0.00
2018-11-28T05:47:58.770Z,0.00
2018-11-28T05:48:58.752Z,0.00
2018-11-28T05:49:58.743Z,0.00
2018-11-28T05:50:58.728Z,0.00
2018-11-28T05:51:58.716Z,0.00
2018-11-28T05:52:58.704Z,0.00
2018-11-28T05:53:58.695Z,0.00
2018-11-28T05:54:58.712Z,0.00
2018-11-28T05:55:58.678Z,0.00
2018-11-28T05:56:58.661Z,0.00
2018-11-28T05:57:58.640Z,0.00
2018-11-28T05:58:58.637Z,0.00
2018-11-28T05:59:58.623Z,0.00
2018-11-28T06:00:58.614Z,0.00
2018-11-28T06:01:58.607Z,0.00
2018-11-28T06:02:58.592Z,0.00
2018-11-28T06:03:58.579Z,0.00
2018-11-28T06:04:58.579Z,0.00
2018-11-28T06:05:58.554Z,0.00
2018-11-28T06:06:58.545Z,0.00
2018-11-28T06:07:58.533Z,0.00
2018-11-28T06:08:58.523Z,0.00
2018-11-28T06:09:58.512Z,4.00
2018-11-28T06:10:58.539Z,0.00
2018-11-28T06:11:58.488Z,0.00
2018-11-28T06:12:58.482Z,4.00
2018-11-28T06:13:58.457Z,4.00
2018-11-28T06:14:58.463Z,4.00
2018-11-28T06:15:58.436Z,4.00
2018-11-28T06:16:58.445Z,4.00
2018-11-28T06:17:58.440Z,8.00
2018-11-28T06:18:58.413Z,8.00
2018-11-28T06:19:58.402Z,8.00
2018-11-28T06:20:58.377Z,12.00
2018-11-28T06:21:58.374Z,12.00
2018-11-28T06:22:58.365Z,16.00
2018-11-28T06:23:58.352Z,20.00
2018-11-28T06:24:58.340Z,20.00
2018-11-28T06:25:58.334Z,28.00
2018-11-28T06:26:58.321Z,36.00
2018-11-28T06:27:58.306Z,40.00
2018-11-28T06:28:58.293Z,44.00
2018-11-28T06:29:58.287Z,52.00
2018-11-28T06:30:58.274Z,60.00
2018-11-28T06:31:58.262Z,72.00
2018-11-28T06:32:58.257Z,80.00
2018-11-28T06:33:58.237Z,92.00
2018-11-28T06:34:58.228Z,104.00
2018-11-28T06:35:58.217Z,124.00
2018-11-28T06:36:58.201Z,144.00
2018-11-28T06:37:58.195Z,164.00
2018-11-28T06:38:58.180Z,188.00
2018-11-28T06:39:58.173Z,212.00
2018-11-28T06:40:58.159Z,236.00
2018-11-28T06:41:58.147Z,260.00
2018-11-28T06:42:58.138Z,288.00
2018-11-28T06:43:58.124Z,312.00
2018-11-28T06:44:58.114Z,340.00
2018-11-28T06:45:58.101Z,368.00
2018-11-28T06:46:58.091Z,400.00
2018-11-28T06:47:58.084Z,428.00
2018-11-28T06:48:58.065Z,464.00
2018-11-28T06:49:58.056Z,504.00
2018-11-28T06:50:58.050Z,552.00
2018-11-28T06:51:58.033Z,616.00
2018-11-28T06:52:58.014Z,680.00
2018-11-28T06:53:58.014Z,748.00
2018-11-28T06:54:57.999Z,812.00
2018-11-28T06:55:57.977Z,876.00
2018-11-28T06:56:57.972Z,956.00
2018-11-28T06:57:57.985Z,1028.00
2018-11-28T06:58:57.956Z,1104.00
2018-11-28T06:59:57.939Z,1172.00
2018-11-28T07:00:57.936Z,1232.00
2018-11-28T07:01:57.921Z,1292.00
2018-11-28T07:02:57.913Z,1352.00
2018-11-28T07:03:57.898Z,1400.00
2018-11-28T07:04:57.887Z,1528.00
2018-11-28T07:05:57.875Z,1704.00
2018-11-28T07:06:57.870Z,1824.00
2018-11-28T07:07:57.852Z,1924.00
2018-11-28T07:08:57.845Z,2016.00
2018-11-28T07:09:57.865Z,2084.00
2018-11-28T07:10:57.821Z,2164.00
2018-11-28T07:11:57.809Z,2296.00
2018-11-28T07:12:57.793Z,2408.00
2018-11-28T07:13:57.783Z,2480.00
2018-11-28T07:14:57.778Z,2428.00
2018-11-28T07:15:57.769Z,2448.00
2018-11-28T07:16:57.758Z,2496.00
2018-11-28T07:17:57.745Z,2600.00
2018-11-28T07:18:57.727Z,2656.00
2018-11-28T07:19:57.718Z,2756.00
2018-11-28T07:20:57.714Z,2924.00
2018-11-28T07:21:57.697Z,3144.00
2018-11-28T07:22:57.717Z,3444.00
2018-11-28T07:23:57.680Z,3692.00
2018-11-28T07:24:57.676Z,3844.00
2018-11-28T07:25:57.658Z,3968.00
2018-11-28T07:26:57.645Z,4064.00
2018-11-28T07:27:57.651Z,4116.00
2018-11-28T07:28:57.630Z,4168.00
2018-11-28T07:29:57.615Z,4292.00
2018-11-28T07:30:57.631Z,4448.00
2018-11-28T07:31:57.605Z,4620.00
2018-11-28T07:32:57.602Z,4916.00
2018-11-28T07:33:57.587Z,5108.00
2018-11-28T07:34:57.594Z,5256.00
2018-11-28T07:35:57.553Z,5540.00
2018-11-28T07:36:57.549Z,5744.00
2018-11-28T07:37:57.539Z,5864.00
2018-11-28T07:38:57.528Z,5832.00
2018-11-28T07:39:57.516Z,5448.00
2018-11-28T07:40:57.506Z,5600.00
2018-11-28T07:41:57.497Z,5828.00
2018-11-28T07:42:57.485Z,6068.00
2018-11-28T07:43:57.479Z,6228.00
2018-11-28T07:44:57.461Z,6304.00
2018-11-28T07:45:57.459Z,6424.00
2018-11-28T07:46:57.438Z,6576.00
2018-11-28T07:47:57.440Z,6812.00
2018-11-28T07:48:57.426Z,6768.00
2018-11-28T07:49:57.421Z,6640.00
2018-11-28T07:50:57.402Z,6848.00
2018-11-28T07:51:57.403Z,6948.00
2018-11-28T07:52:57.382Z,6864.00
2018-11-28T07:53:57.383Z,6864.00
2018-11-28T07:54:57.372Z,7000.00
2018-11-28T07:55:57.363Z,7188.00
2018-11-28T07:56:57.357Z,7028.00
2018-11-28T07:57:57.343Z,7036.00
2018-11-28T07:58:57.341Z,6924.00
2018-11-28T07:59:57.329Z,6896.00
2018-11-28T08:00:57.320Z,7208.00
2018-11-28T08:01:57.312Z,7156.00
2018-11-28T08:02:57.293Z,7160.00
2018-11-28T08:03:57.335Z,6984.00
2018-11-28T08:04:57.282Z,6864.00
2018-11-28T08:05:57.296Z,6904.00
2018-11-28T08:06:57.265Z,6840.00
2018-11-28T08:07:57.257Z,7032.00
2018-11-28T08:08:57.246Z,7152.00
2018-11-28T08:09:57.247Z,7484.00
2018-11-28T08:10:57.227Z,7628.00
2018-11-28T08:11:57.225Z,7664.00
2018-11-28T08:12:57.214Z,7724.00
2018-11-28T08:13:57.202Z,7868.00
2018-11-28T08:14:57.194Z,7700.00
2018-11-28T08:15:57.181Z,7856.00
2018-11-28T08:16:57.173Z,7700.00
2018-11-28T08:17:57.165Z,7756.00
2018-11-28T08:18:57.157Z,7776.00
2018-11-28T08:19:57.147Z,7896.00
2018-11-28T08:20:57.135Z,7944.00
2018-11-28T08:21:57.128Z,8096.00
2018-11-28T08:22:57.116Z,8232.00
2018-11-28T08:23:57.107Z,8436.00
2018-11-28T08:24:57.099Z,8344.00
2018-11-28T08:25:57.096Z,8080.00
2018-11-28T08:26:57.083Z,8180.00
2018-11-28T08:27:57.141Z,8136.00
2018-11-28T08:28:57.063Z,7892.00
2018-11-28T08:29:57.055Z,7612.00
2018-11-28T08:30:57.044Z,7528.00
2018-11-28T08:31:57.038Z,7424.00
2018-11-28T08:32:57.029Z,7336.00
2018-11-28T08:33:57.030Z,7212.00
2018-11-28T08:34:57.010Z,7112.00
2018-11-28T08:35:57.014Z,7052.00
2018-11-28T08:36:56.991Z,7032.00
2018-11-28T08:37:56.985Z,7100.00
2018-11-28T08:38:56.977Z,7256.00
2018-11-28T08:39:56.969Z,7408.00
2018-11-28T08:40:56.957Z,7732.00
2018-11-28T08:41:56.947Z,8244.00
2018-11-28T08:42:56.939Z,8912.00
2018-11-28T08:43:56.929Z,9624.00
2018-11-28T08:44:56.921Z,10204.00
2018-11-28T08:45:56.909Z,10448.00
2018-11-28T08:46:56.901Z,10356.00
2018-11-28T08:47:56.892Z,10112.00
2018-11-28T08:48:56.887Z,9832.00
2018-11-28T08:49:56.875Z,9704.00
2018-11-28T08:50:56.869Z,9912.00
2018-11-28T08:51:56.859Z,10252.00
2018-11-28T08:52:56.848Z,10808.00
2018-11-28T08:53:56.841Z,11152.00
2018-11-28T08:54:56.832Z,11372.00
2018-11-28T08:55:56.828Z,11324.00
2018-11-28T08:56:56.817Z,10872.00
2018-11-28T08:57:56.811Z,10808.00
2018-11-28T08:58:56.820Z,10884.00
2018-11-28T08:59:56.789Z,11020.00
2018-11-28T09:00:56.784Z,11156.00
2018-11-28T09:01:56.774Z,11296.00
2018-11-28T09:02:56.786Z,11552.00
2018-11-28T09:03:56.760Z,11872.00
2018-11-28T09:04:56.751Z,11812.00
2018-11-28T09:05:56.734Z,11568.00
2018-11-28T09:06:56.736Z,11140.00
2018-11-28T09:07:56.729Z,10820.00
2018-11-28T09:08:56.724Z,10376.00
2018-11-28T09:09:56.718Z,9928.00
2018-11-28T09:10:56.707Z,9564.00
2018-11-28T09:11:56.692Z,9200.00
2018-11-28T09:12:56.693Z,9076.00
2018-11-28T09:13:56.684Z,9260.00
2018-11-28T09:14:56.670Z,9700.00
2018-11-28T09:15:56.668Z,10136.00
2018-11-28T09:16:56.660Z,10412.00
2018-11-28T09:17:56.654Z,10696.00
2018-11-28T09:18:56.648Z,10844.00
2018-11-28T09:19:56.639Z,11004.00
2018-11-28T09:20:56.631Z,11180.00
2018-11-28T09:21:56.624Z,11476.00
2018-11-28T09:22:56.609Z,12024.00
2018-11-28T09:23:56.608Z,12340.00
2018-11-28T09:24:56.602Z,12604.00
2018-11-28T09:25:56.601Z,12492.00
2018-11-28T09:26:56.586Z,12528.00
2018-11-28T09:27:56.581Z,12156.00
2018-11-28T09:28:56.576Z,11824.00
2018-11-28T09:29:56.566Z,11628.00
2018-11-28T09:30:56.559Z,11552.00
2018-11-28T09:31:56.548Z,11656.00
2018-11-28T09:32:56.583Z,11748.00
2018-11-28T09:33:56.543Z,11844.00
2018-11-28T09:34:56.534Z,11892.00
2018-11-28T09:35:56.528Z,11696.00
2018-11-28T09:36:56.522Z,12292.00
2018-11-28T09:37:56.514Z,13340.00
2018-11-28T09:38:56.507Z,13656.00
2018-11-28T09:39:56.503Z,13544.00
2018-11-28T09:40:56.499Z,12980.00
2018-11-28T09:41:56.490Z,12728.00
2018-11-28T09:42:56.485Z,12824.00
2018-11-28T09:43:56.480Z,13436.00
2018-11-28T09:44:56.608Z,13228.00
2018-11-28T09:45:56.467Z,12888.00
2018-11-28T09:46:56.463Z,12524.00
2018-11-28T09:47:56.457Z,12780.00
2018-11-28T09:48:56.452Z,13052.00
2018-11-28T09:49:56.445Z,13376.00
2018-11-28T09:50:56.437Z,13824.00
2018-11-28T09:51:56.433Z,13984.00
2018-11-28T09:52:56.427Z,14628.00
2018-11-28T09:53:56.421Z,14904.00
2018-11-28T09:54:56.415Z,14168.00
2018-11-28T09:55:56.410Z,13700.00
2018-11-28T09:56:56.409Z,13536.00
2018-11-28T09:57:56.403Z,13564.00
2018-11-28T09:58:56.394Z,13640.00
2018-11-28T09:59:56.396Z,13672.00
2018-11-28T10:00:56.385Z,13560.00
2018-11-28T10:01:56.378Z,13508.00
2018-11-28T10:02:56.415Z,13592.00
2018-11-28T10:03:56.369Z,13704.00
2018-11-28T10:04:56.371Z,14032.00
2018-11-28T10:05:56.364Z,14404.00
2018-11-28T10:06:56.346Z,14632.00
2018-11-28T10:07:56.352Z,14796.00
2018-11-28T10:08:56.342Z,14940.00
2018-11-28T10:09:56.336Z,14900.00
2018-11-28T10:10:56.330Z,14680.00
2018-11-28T10:11:56.334Z,14504.00
2018-11-28T10:12:56.328Z,14300.00
2018-11-28T10:13:56.321Z,14004.00
2018-11-28T10:14:56.311Z,13832.00
2018-11-28T10:15:56.305Z,13764.00
2018-11-28T10:16:56.775Z,13728.00
2018-11-28T10:17:56.300Z,13648.00
2018-11-28T10:18:56.340Z,13556.00
2018-11-28T10:19:56.288Z,13436.00
2018-11-28T10:20:56.283Z,13288.00
2018-11-28T10:21:56.279Z,13196.00
2018-11-28T10:22:56.270Z,13156.00
2018-11-28T10:23:56.270Z,13160.00
2018-11-28T10:24:56.260Z,13248.00
2018-11-28T10:25:56.253Z,13416.00
2018-11-28T10:26:56.253Z,13528.00
2018-11-28T10:27:56.242Z,13636.00
2018-11-28T10:28:56.237Z,13536.00
2018-11-28T10:29:56.241Z,13500.00
2018-11-28T10:30:56.241Z,13308.00
2018-11-28T10:31:56.223Z,13192.00
2018-11-28T10:32:56.219Z,13220.00
2018-11-28T10:33:56.211Z,13532.00
2018-11-28T10:34:56.268Z,13584.00
2018-11-28T10:35:56.210Z,13416.00
2018-11-28T10:36:56.187Z,13460.00
2018-11-28T10:37:56.191Z,13444.00
2018-11-28T10:38:56.181Z,13412.00
2018-11-28T10:39:56.179Z,13388.00
2018-11-28T10:40:56.171Z,13148.00
2018-11-28T10:41:56.169Z,12988.00
2018-11-28T10:42:56.165Z,12620.00
2018-11-28T10:43:56.156Z,12744.00
2018-11-28T10:44:56.150Z,12604.00
2018-11-28T10:45:56.144Z,12776.00
2018-11-28T10:46:56.142Z,12772.00
2018-11-28T10:47:56.135Z,12316.00
2018-11-28T10:48:56.129Z,12804.00
2018-11-28T10:49:56.125Z,13280.00
2018-11-28T10:50:56.142Z,13276.00
2018-11-28T10:51:56.113Z,13440.00
2018-11-28T10:52:56.108Z,12720.00
2018-11-28T10:53:56.102Z,13384.00
2018-11-28T10:54:56.152Z,13564.00
2018-11-28T10:55:56.106Z,13808.00
2018-11-28T10:56:56.092Z,13584.00
2018-11-28T10:57:56.078Z,13384.00
2018-11-28T10:58:56.114Z,13024.00
2018-11-28T10:59:56.104Z,12956.00
2018-11-28T11:00:56.082Z,12664.00
2018-11-28T11:01:56.053Z,12548.00
2018-11-28T11:02:56.047Z,12596.00
2018-11-28T11:03:56.056Z,12756.00
2018-11-28T11:04:56.069Z,12948.00
2018-11-28T11:05:56.065Z,13088.00
2018-11-28T11:06:56.072Z,13072.00
2018-11-28T11:07:56.036Z,12928.00
2018-11-28T11:08:56.028Z,12616.00
2018-11-28T11:09:56.024Z,12372.00
2018-11-28T11:10:56.018Z,12060.00
2018-11-28T11:11:56.021Z,12160.00
2018-11-28T11:12:56.007Z,12116.00
2018-11-28T11:13:56.004Z,12004.00
2018-11-28T11:14:55.998Z,11992.00
2018-11-28T11:15:55.995Z,11924.00
2018-11-28T11:16:55.989Z,11988.00
2018-11-28T11:18:01.994Z,12076.00
2018-11-28T11:18:55.980Z,12004.00
2018-11-28T11:19:55.991Z,11896.00
2018-11-28T11:20:55.992Z,11584.00
2018-11-28T11:21:55.965Z,11400.00
2018-11-28T11:22:55.979Z,10876.00
2018-11-28T11:23:55.968Z,11864.00
2018-11-28T11:24:55.950Z,11016.00
2018-11-28T11:25:55.943Z,10716.00
2018-11-28T11:26:55.940Z,11112.00
2018-11-28T11:27:55.935Z,10340.00
2018-11-28T11:28:55.936Z,10024.00
2018-11-28T11:29:55.953Z,9972.00
2018-11-28T11:30:55.920Z,10324.00
2018-11-28T11:31:55.915Z,10512.00
2018-11-28T11:32:55.915Z,10972.00
2018-11-28T11:33:55.905Z,11412.00
2018-11-28T11:34:55.902Z,10388.00
2018-11-28T11:35:55.896Z,10072.00
2018-11-28T11:36:55.918Z,10096.00
2018-11-28T11:37:55.886Z,10488.00
2018-11-28T11:38:55.874Z,10360.00
2018-11-28T11:39:55.875Z,11224.00
2018-11-28T11:40:55.894Z,11820.00
2018-11-28T11:41:55.866Z,11224.00
2018-11-28T11:42:55.858Z,11456.00
2018-11-28T11:43:55.859Z,10336.00
2018-11-28T11:44:55.852Z,11508.00
2018-11-28T11:45:55.849Z,12336.00
2018-11-28T11:46:55.841Z,11420.00
2018-11-28T11:47:55.826Z,10428.00
2018-11-28T11:48:55.834Z,9572.00
2018-11-28T11:49:55.828Z,9548.00
2018-11-28T11:50:55.843Z,9844.00
2018-11-28T11:51:55.820Z,10456.00
2018-11-28T11:52:55.811Z,10408.00
2018-11-28T11:53:55.808Z,10204.00
2018-11-28T11:54:55.808Z,10784.00
2018-11-28T11:55:55.802Z,11460.00
2018-11-28T11:56:55.794Z,12164.00
2018-11-28T11:57:55.821Z,13272.00
2018-11-28T11:58:55.781Z,13776.00
2018-11-28T11:59:55.778Z,13036.00
2018-11-28T12:00:55.774Z,11552.00
2018-11-28T12:01:55.767Z,10892.00
2018-11-28T12:02:55.767Z,10736.00
2018-11-28T12:03:55.784Z,11508.00
2018-11-28T12:04:55.795Z,13196.00
2018-11-28T12:05:55.753Z,14108.00
2018-11-28T12:06:55.783Z,14244.00
2018-11-28T12:07:55.739Z,13412.00
2018-11-28T12:08:55.765Z,12208.00
2018-11-28T12:09:55.734Z,9844.00
2018-11-28T12:10:55.730Z,8980.00
2018-11-28T12:11:55.721Z,8748.00
2018-11-28T12:12:55.718Z,9072.00
2018-11-28T12:13:55.711Z,9328.00
2018-11-28T12:14:55.706Z,9656.00
2018-11-28T12:15:55.705Z,9148.00
2018-11-28T12:16:55.686Z,9660.00
2018-11-28T12:17:55.690Z,9928.00
2018-11-28T12:18:55.685Z,10104.00
2018-11-28T12:19:55.679Z,8980.00
2018-11-28T12:20:55.674Z,7228.00
2018-11-28T12:21:55.675Z,7980.00
2018-11-28T12:22:55.666Z,8144.00
2018-11-28T12:23:55.666Z,7944.00
2018-11-28T12:24:55.664Z,8092.00
2018-11-28T12:25:55.647Z,6640.00
2018-11-28T12:26:55.639Z,7264.00
2018-11-28T12:27:55.641Z,7856.00
2018-11-28T12:28:55.640Z,7600.00
2018-11-28T12:29:55.632Z,6728.00
2018-11-28T12:30:55.628Z,6884.00
2018-11-28T12:31:55.620Z,6868.00
2018-11-28T12:32:55.620Z,6840.00
2018-11-28T12:33:55.616Z,5780.00
2018-11-28T12:34:55.625Z,5832.00
2018-11-28T12:35:55.614Z,7076.00